Time;durP1;ratioP1;P1;durP2;ratioP2;P2;SDS_P1;SDS_P2;PMS_P1;PMS_P2;Temp;Humidity;BMP_temperature;BMP_pressure;BME280_temperature;BME280_humidity;BME280_pressure;Samples;Min_cycle;Max_cycle;Signal;HPM_P1;HPM_P2
2024/01/17 00:02:15;;;;;;;125.43;54.35;;;;;;;-142.57;100.00;55773.78;5041804;28;20352;-85
2024/01/17 00:04:45;;;;;;;128.90;53.90;;;;;;;-142.57;100.00;55777.81;5025070;28;20029;-88
2024/01/17 00:10:17;;;;;;;123.55;52.50;;;;;;;-142.57;100.00;55789.94;5057264;28;20047;-80
2024/01/17 00:12:43;;;;;;;124.70;53.17;;;;;;;-142.57;100.00;55814.19;5055299;28;20041;-77
2024/01/17 00:15:09;;;;;;;123.07;52.33;;;;;;;-142.57;100.00;55798.00;5053296;28;20063;-84
2024/01/17 00:17:34;;;;;;;123.45;52.90;;;;;;;-142.57;100.00;55810.13;5046363;28;20056;-87
2024/01/17 00:20:00;;;;;;;124.20;52.40;;;;;;;-142.57;100.00;55844.50;5027845;28;20033;-87
2024/01/17 00:22:26;;;;;;;118.03;51.97;;;;;;;-142.57;100.00;55796.00;5029218;28;20041;-84
2024/01/17 00:24:51;;;;;;;122.75;52.72;;;;;;;-142.57;100.00;55816.19;5045198;28;20037;-86
2024/01/17 00:27:18;;;;;;;120.82;51.65;;;;;;;-142.57;100.00;55834.38;5044428;28;20033;-86
2024/01/17 00:29:45;;;;;;;132.60;52.97;;;;;;;-142.57;100.00;55836.41;5044899;28;20045;-85
2024/01/17 00:32:11;;;;;;;113.50;52.72;;;;;;;-142.57;100.00;55856.63;5048945;28;20036;-87
2024/01/17 00:34:36;;;;;;;114.32;49.72;;;;;;;-142.57;100.00;55804.06;5053066;28;20034;-83
2024/01/17 00:37:23;;;;;;;116.55;51.05;;;;;;;-142.57;100.00;55838.44;5021978;28;20383;-80
2024/01/17 00:39:49;;;;;;;118.75;50.92;;;;;;;-142.57;100.00;55753.56;5040256;28;20052;-79
2024/01/17 00:42:15;;;;;;;119.30;53.63;;;;;;;-142.57;100.00;55789.94;5055198;28;20041;-80
2024/01/17 00:44:41;;;;;;;113.57;51.40;;;;;;;-142.57;100.00;55800.03;5054088;28;20042;-78
2024/01/17 00:47:07;;;;;;;116.22;52.80;;;;;;;-142.57;100.00;55814.19;5053118;28;20117;-80
2024/01/17 00:49:33;;;;;;;106.47;50.55;;;;;;;-142.57;100.00;55806.09;5047698;28;20025;-84
2024/01/17 00:52:10;;;;;;;114.20;50.55;;;;;;;-142.57;100.00;55757.59;5039245;28;20483;-86
2024/01/17 00:54:36;;;;;;;118.70;53.90;;;;;;;-142.57;100.00;55765.69;5022299;28;20037;-85
2024/01/17 00:57:04;;;;;;;118.18;54.80;;;;;;;-142.57;100.00;55765.69;5039799;28;20033;-81
2024/01/17 00:59:30;;;;;;;118.25;53.40;;;;;;;-142.57;100.00;55741.44;5040399;28;20030;-82
2024/01/17 01:01:59;;;;;;;120.03;55.03;;;;;;;-142.57;100.00;55779.84;5039605;28;20030;-83
2024/01/17 01:04:24;;;;;;;118.00;53.80;;;;;;;-142.57;100.00;55771.75;5039857;28;20048;-81
2024/01/17 01:06:52;;;;;;;119.28;54.25;;;;;;;-142.57;100.00;55777.81;5039500;28;20470;-84
2024/01/17 01:09:21;;;;;;;116.22;53.95;;;;;;;-142.57;100.00;55699.00;5039880;28;20044;-84
2024/01/17 01:11:46;;;;;;;124.72;55.55;;;;;;;-142.57;100.00;55765.69;5040108;28;20471;-83
2024/01/17 01:14:12;;;;;;;122.75;53.85;;;;;;;-142.57;100.00;55777.81;5039248;28;20037;-86
2024/01/17 01:16:38;;;;;;;113.68;53.92;;;;;;;-142.57;100.00;55810.13;5039512;28;20037;-81
2024/01/17 01:19:04;;;;;;;118.65;54.67;;;;;;;-142.57;100.00;55745.47;5038143;28;20125;-81
2024/01/17 01:21:33;;;;;;;111.80;52.28;;;;;;;-142.57;100.00;55800.03;5038461;28;20056;-85
2024/01/17 01:23:58;;;;;;;113.97;52.97;;;;;;;-142.57;100.00;55765.69;5037814;28;20320;-87
2024/01/17 01:26:24;;;;;;;117.47;54.25;;;;;;;-142.57;100.00;55773.78;5039205;28;20049;-84
2024/01/17 01:28:49;;;;;;;118.93;53.55;;;;;;;-142.57;100.00;55715.16;5038045;28;20089;-79
2024/01/17 01:31:15;;;;;;;115.75;54.00;;;;;;;-142.57;100.00;55773.78;5021890;28;20036;-81
2024/01/17 01:33:40;;;;;;;116.53;52.90;;;;;;;-142.57;100.00;55765.69;5042664;28;20152;-81
2024/01/17 01:36:06;;;;;;;115.85;54.05;;;;;;;-142.57;100.00;55757.59;5040918;28;20060;-83
2024/01/17 01:38:32;;;;;;;124.93;55.40;;;;;;;-142.57;100.00;55773.78;5040485;28;20060;-82
2024/01/17 01:40:58;;;;;;;124.63;55.20;;;;;;;-142.57;100.00;55761.66;5041310;28;20136;-81
2024/01/17 01:43:24;;;;;;;121.63;52.90;;;;;;;-142.57;100.00;55723.25;5021566;28;20034;-81
2024/01/17 01:46:15;;;;;;;122.72;55.20;;;;;;;-142.57;100.00;55715.16;5039694;28;20097;-84
2024/01/17 01:48:42;;;;;;;120.38;52.88;;;;;;;-142.57;100.00;55743.47;5039160;28;20065;-85
2024/01/17 01:51:10;;;;;;;121.78;54.60;;;;;;;-142.57;100.00;55749.53;5038775;28;20072;-81
2024/01/17 01:53:37;;;;;;;121.38;55.20;;;;;;;-142.57;100.00;55761.66;5038201;28;20037;-83
2024/01/17 01:56:04;;;;;;;128.10;54.42;;;;;;;-142.57;100.00;55773.78;5038881;28;20087;-83
2024/01/17 01:58:32;;;;;;;116.07;53.40;;;;;;;-142.57;100.00;55793.97;5037816;28;20037;-81
2024/01/17 02:01:01;;;;;;;120.38;55.42;;;;;;;-142.57;100.00;55798.00;5040951;28;20057;-83
2024/01/17 02:03:28;;;;;;;114.78;53.75;;;;;;;-142.57;100.00;55793.97;5038501;28;20042;-81
2024/01/17 02:05:54;;;;;;;117.13;52.90;;;;;;;-142.57;100.00;55838.44;5021691;28;20036;-78
2024/01/17 02:08:20;;;;;;;114.32;52.53;;;;;;;-142.57;100.00;55846.50;5039991;28;20045;-81
2024/01/17 02:10:46;;;;;;;116.95;55.33;;;;;;;-142.57;100.00;55806.09;5039517;28;20041;-84
2024/01/17 02:13:12;;;;;;;113.05;52.25;;;;;;;-142.57;100.00;55787.91;5038566;28;20041;-83
2024/01/17 02:15:41;;;;;;;116.88;53.75;;;;;;;-142.57;100.00;55791.94;5037938;28;20064;-84
2024/01/17 02:18:09;;;;;;;121.53;53.10;;;;;;;-142.57;100.00;55793.97;5038840;28;20128;-81
2024/01/17 02:20:35;;;;;;;119.03;53.55;;;;;;;-142.57;100.00;55804.06;5038766;28;20048;-81
2024/01/17 02:23:02;;;;;;;112.93;55.60;;;;;;;-142.57;100.00;55798.00;5038229;28;20037;-83
2024/01/17 02:25:28;;;;;;;115.32;53.15;;;;;;;-142.57;100.00;55806.09;5037479;28;20120;-83
2024/01/17 02:27:54;;;;;;;118.75;54.17;;;;;;;-142.57;100.00;55830.34;5038536;28;20037;-86
2024/01/17 02:30:20;;;;;;;110.53;54.83;;;;;;;-142.57;100.00;55802.06;5021227;28;20402;-83
2024/01/17 02:32:45;;;;;;;115.70;54.28;;;;;;;-142.57;100.00;55840.44;5037856;28;20042;-86
2024/01/17 02:35:11;;;;;;;122.32;55.47;;;;;;;-142.57;100.00;55838.44;5038287;28;20033;-84
2024/01/17 02:37:36;;;;;;;122.53;55.03;;;;;;;-142.57;100.00;55789.94;5039655;28;20030;-83
2024/01/17 02:40:02;;;;;;;115.95;53.88;;;;;;;-142.57;100.00;55836.41;5038364;28;20482;-86
2024/01/17 02:42:28;;;;;;;117.78;54.08;;;;;;;-142.57;100.00;55824.28;5037870;28;20041;-82
2024/01/17 02:44:53;;;;;;;112.28;52.17;;;;;;;-142.57;100.00;55802.06;5038639;28;20034;-86
2024/01/17 02:47:19;;;;;;;116.82;53.72;;;;;;;-142.57;100.00;55838.44;5003262;28;20375;-82
2024/01/17 02:49:44;;;;;;;117.82;55.90;;;;;;;-142.57;100.00;55810.13;5036978;28;20058;-80
2024/01/17 02:52:12;;;;;;;117.03;54.47;;;;;;;-142.57;100.00;55856.63;5036599;28;20029;-78
2024/01/17 02:54:41;;;;;;;112.40;52.92;;;;;;;-142.57;100.00;55852.56;5039420;28;20097;-87
2024/01/17 02:57:10;;;;;;;118.65;53.78;;;;;;;-142.57;100.00;55785.91;5039039;28;20026;-83
2024/01/17 02:59:36;;;;;;;118.10;54.35;;;;;;;-142.57;100.00;55796.00;5042742;28;20091;-81
2024/01/17 03:02:02;;;;;;;122.00;57.17;;;;;;;-142.57;100.00;55765.69;5051370;28;20028;-77
2024/01/17 03:04:30;;;;;;;116.05;53.80;;;;;;;-142.57;100.00;55862.69;5055490;28;20045;-82
2024/01/17 03:07:34;;;;;;;117.60;55.13;;;;;;;-142.57;100.00;55824.28;5053647;28;20121;-77
2024/01/17 03:09:59;;;;;;;119.40;55.67;;;;;;;-142.57;100.00;55834.38;5054716;28;20033;-79
2024/01/17 03:12:25;;;;;;;115.68;54.92;;;;;;;-142.57;100.00;55846.50;5042813;28;20025;-83
2024/01/17 03:14:53;;;;;;;113.65;52.58;;;;;;;-142.57;100.00;55830.34;5036685;28;20025;-79
2024/01/17 03:17:19;;;;;;;119.70;55.90;;;;;;;-142.57;100.00;55824.28;5018723;28;20064;-80
2024/01/17 03:19:46;;;;;;;118.72;57.80;;;;;;;-142.57;100.00;55806.09;5036281;28;20030;-80
2024/01/17 03:22:17;;;;;;;119.03;55.80;;;;;;;-142.57;100.00;55822.25;5018735;28;20125;-80
2024/01/17 03:24:45;;;;;;;121.70;55.73;;;;;;;-142.57;100.00;55838.44;5035934;28;20099;-81
2024/01/17 03:27:13;;;;;;;118.25;54.97;;;;;;;-142.57;100.00;55826.31;5018660;28;20041;-85
2024/01/17 03:29:38;;;;;;;112.47;54.97;;;;;;;-142.57;100.00;55868.72;5036216;28;20030;-80
2024/01/17 03:32:04;;;;;;;120.68;56.85;;;;;;;-142.57;100.00;55840.44;5036369;28;20458;-80
2024/01/17 03:34:30;;;;;;;116.78;55.90;;;;;;;-142.57;100.00;55850.56;5034181;28;20036;-80
2024/01/17 03:36:56;;;;;;;117.13;56.40;;;;;;;-142.57;100.00;55828.31;5035953;28;20037;-84
2024/01/17 03:39:23;;;;;;;113.35;54.65;;;;;;;-142.57;100.00;55842.47;5035615;28;20573;-84
2024/01/17 03:41:48;;;;;;;114.72;55.35;;;;;;;-142.57;100.00;55785.91;5036944;28;20044;-80
2024/01/17 03:44:14;;;;;;;117.57;56.10;;;;;;;-142.57;100.00;55820.25;5036468;28;20038;-84
2024/01/17 03:46:40;;;;;;;115.10;55.10;;;;;;;-142.57;100.00;55818.22;5017947;28;20116;-77
2024/01/17 03:49:05;;;;;;;118.60;54.95;;;;;;;-142.57;100.00;55810.13;5035311;28;20117;-86
2024/01/17 03:51:31;;;;;;;127.25;59.40;;;;;;;-142.57;100.00;55775.78;5035627;28;20087;-81
2024/01/17 03:53:56;;;;;;;118.00;57.25;;;;;;;-142.57;100.00;55793.97;5034258;28;20478;-81
2024/01/17 03:56:23;;;;;;;122.75;54.95;;;;;;;-142.57;100.00;55802.06;5034613;28;20040;-82
2024/01/17 03:58:49;;;;;;;121.97;56.53;;;;;;;-142.57;100.00;55777.81;5035013;28;20029;-79
2024/01/17 04:01:14;;;;;;;129.38;58.08;;;;;;;-142.57;100.00;55785.91;5034943;28;20358;-83
2024/01/17 04:03:40;;;;;;;123.15;58.22;;;;;;;-142.57;100.00;55822.25;5036703;28;20040;-83
2024/01/17 04:06:06;;;;;;;122.88;56.55;;;;;;;-142.57;100.00;55812.16;5036030;28;20041;-85
2024/01/17 04:08:35;;;;;;;129.05;59.47;;;;;;;-142.57;100.00;55779.84;5018808;28;20095;-86
2024/01/17 04:11:01;;;;;;;113.30;54.33;;;;;;;-142.57;100.00;55870.75;5036498;28;20099;-87
2024/01/17 04:13:26;;;;;;;115.45;55.83;;;;;;;-142.57;100.00;55854.59;5036117;28;20437;-84
2024/01/17 04:15:51;;;;;;;105.65;52.80;;;;;;;-142.57;100.00;55874.78;5035583;28;20495;-80
2024/01/17 04:18:17;;;;;;;117.30;54.45;;;;;;;-142.57;100.00;55860.66;5034016;28;20029;-79
2024/01/17 04:20:43;;;;;;;120.35;56.38;;;;;;;-142.57;100.00;55844.50;5033432;28;20099;-81
2024/01/17 04:23:08;;;;;;;126.28;57.33;;;;;;;-142.57;100.00;55791.94;5016836;28;20041;-77
2024/01/17 04:25:35;;;;;;;121.57;56.28;;;;;;;-142.57;100.00;55838.44;5015160;28;20178;-79
2024/01/17 04:28:06;;;;;;;121.35;55.97;;;;;;;-142.57;100.00;55793.97;5034827;28;20045;-78
2024/01/17 04:30:31;;;;;;;114.30;53.95;;;;;;;-142.57;100.00;55846.50;5033046;28;20041;-78
2024/01/17 04:32:57;;;;;;;128.23;58.08;;;;;;;-142.57;100.00;55802.06;5032785;28;20025;-77
2024/01/17 04:35:25;;;;;;;112.70;54.83;;;;;;;-142.57;100.00;55789.94;5034647;28;20092;-82
2024/01/17 04:37:51;;;;;;;119.97;55.33;;;;;;;-142.57;100.00;55822.25;5016240;28;20038;-81
2024/01/17 04:40:16;;;;;;;117.63;56.10;;;;;;;-142.57;100.00;55798.00;5035295;28;20037;-81
2024/01/17 04:42:43;;;;;;;121.25;55.00;;;;;;;-142.57;100.00;55818.22;5036783;28;20530;-85
2024/01/17 04:45:10;;;;;;;118.35;55.17;;;;;;;-142.57;100.00;55802.06;5042678;28;20029;-85
2024/01/17 04:47:39;;;;;;;114.65;55.53;;;;;;;-142.57;100.00;55822.25;5041899;28;20033;-81
2024/01/17 04:50:05;;;;;;;116.90;54.95;;;;;;;-142.57;100.00;55796.00;5037662;28;20087;-79
2024/01/17 04:52:31;;;;;;;115.18;54.70;;;;;;;-142.57;100.00;55802.06;5020980;28;20104;-77
2024/01/17 04:54:56;;;;;;;113.95;55.90;;;;;;;-142.57;100.00;55806.09;5031894;28;20148;-78
2024/01/17 04:57:22;;;;;;;122.97;56.58;;;;;;;-142.57;100.00;55802.06;5051582;28;20092;-83
2024/01/17 04:59:47;;;;;;;121.30;56.28;;;;;;;-142.57;100.00;55818.22;5034051;28;20041;-78
2024/01/17 05:02:13;;;;;;;116.35;54.88;;;;;;;-142.57;100.00;55834.38;5034608;28;20509;-80
2024/01/17 05:04:38;;;;;;;120.93;57.80;;;;;;;-142.57;100.00;55824.28;5034212;28;20045;-81
2024/01/17 05:07:04;;;;;;;114.65;55.70;;;;;;;-142.57;100.00;55793.97;5035281;28;20037;-84
2024/01/17 05:09:29;;;;;;;119.60;58.63;;;;;;;-142.57;100.00;55806.09;5017170;28;20037;-84
2024/01/17 05:11:58;;;;;;;113.93;56.03;;;;;;;-142.57;100.00;55767.72;5035233;28;20072;-81
2024/01/17 05:14:23;;;;;;;122.95;57.97;;;;;;;-142.57;100.00;55769.72;5033341;28;20147;-80
2024/01/17 05:16:49;;;;;;;123.55;57.72;;;;;;;-142.57;100.00;55741.44;5033653;28;20029;-80
2024/01/17 05:19:17;;;;;;;130.98;59.22;;;;;;;-142.57;100.00;55785.91;5035076;28;20037;-83
2024/01/17 05:21:42;;;;;;;120.93;56.72;;;;;;;-142.57;100.00;55822.25;5033810;28;20033;-86
2024/01/17 05:24:08;;;;;;;122.47;56.53;;;;;;;-142.57;100.00;55765.69;5036425;28;20029;-82
2024/01/17 05:26:33;;;;;;;122.80;57.45;;;;;;;-142.57;100.00;55783.88;5045054;28;20038;-84
2024/01/17 05:28:59;;;;;;;121.10;56.38;;;;;;;-142.57;100.00;55796.00;5050817;28;20030;-78
2024/01/17 05:31:25;;;;;;;131.05;59.10;;;;;;;-142.57;100.00;55789.94;5046653;28;20053;-77
2024/01/17 05:33:50;;;;;;;127.38;59.63;;;;;;;-142.57;100.00;55798.00;5043153;28;20037;-79
2024/01/17 05:36:16;;;;;;;122.10;58.63;;;;;;;-142.57;100.00;55802.06;5044482;28;20037;-82
2024/01/17 05:38:43;;;;;;;126.78;59.97;;;;;;;-142.57;100.00;55818.22;5042293;28;20037;-86
2024/01/17 05:41:09;;;;;;;126.55;57.95;;;;;;;-142.57;100.00;55846.50;5048816;28;20022;-85
2024/01/17 05:43:34;;;;;;;123.75;56.67;;;;;;;-142.57;100.00;55802.06;5050336;28;20595;-79
2024/01/17 05:46:00;;;;;;;122.13;57.67;;;;;;;-142.57;100.00;55802.06;5051811;28;20048;-80
2024/01/17 05:48:28;;;;;;;131.48;59.83;;;;;;;-142.57;100.00;55787.91;5052742;28;20037;-78
2024/01/17 05:50:54;;;;;;;122.80;56.50;;;;;;;-142.57;100.00;55802.06;5049853;28;20017;-82
2024/01/17 05:53:19;;;;;;;126.75;58.95;;;;;;;-142.57;100.00;55793.97;5056683;28;20854;-79
2024/01/17 05:55:45;;;;;;;128.18;56.92;;;;;;;-142.57;100.00;55789.94;5060011;28;20026;-80
2024/01/17 05:58:10;;;;;;;122.35;56.15;;;;;;;-142.57;100.00;55854.59;5057142;28;20041;-79
2024/01/17 06:00:37;;;;;;;119.65;57.42;;;;;;;-142.57;100.00;55789.94;5040150;28;20048;-80
2024/01/17 06:03:06;;;;;;;122.90;58.17;;;;;;;-142.57;100.00;55773.78;5058191;28;20080;-80
2024/01/17 06:05:35;;;;;;;130.80;58.63;;;;;;;-142.57;100.00;55761.66;5054905;28;20036;-81
2024/01/17 06:08:01;;;;;;;131.88;57.38;;;;;;;-142.57;100.00;55777.81;5055099;28;20037;-78
2024/01/17 06:10:28;;;;;;;128.85;60.60;;;;;;;-142.57;100.00;55777.81;5054843;28;20060;-80
2024/01/17 06:12:54;;;;;;;139.05;60.55;;;;;;;-142.57;100.00;55777.81;5037391;28;20052;-79
2024/01/17 06:15:20;;;;;;;137.23;60.50;;;;;;;-142.57;100.00;55783.88;5052980;28;20025;-80
2024/01/17 06:17:46;;;;;;;135.48;62.00;;;;;;;-142.57;100.00;55777.81;5047191;28;20057;-79
2024/01/17 06:20:12;;;;;;;131.07;59.08;;;;;;;-142.57;100.00;55793.97;5051017;28;20034;-79
2024/01/17 06:22:38;;;;;;;128.20;59.10;;;;;;;-142.57;100.00;55789.94;5045018;28;20033;-81
2024/01/17 06:25:06;;;;;;;137.82;61.45;;;;;;;-142.57;100.00;55826.31;5043172;28;20038;-82
2024/01/17 06:27:34;;;;;;;135.98;60.70;;;;;;;-142.57;100.00;55793.97;5045394;28;20041;-83
2024/01/17 06:30:00;;;;;;;144.52;63.78;;;;;;;-142.57;100.00;55767.72;5027987;28;20042;-89
2024/01/17 06:32:26;;;;;;;149.13;66.15;;;;;;;-142.57;100.00;55810.13;5046446;28;20036;-86
2024/01/17 06:34:54;;;;;;;149.05;64.97;;;;;;;-142.57;100.00;55814.19;5047404;28;20029;-84
2024/01/17 06:37:19;;;;;;;144.63;64.07;;;;;;;-142.57;100.00;55846.50;5044389;28;20106;-83
2024/01/17 06:39:45;;;;;;;159.85;70.43;;;;;;;-142.57;100.00;55802.06;5039503;28;20068;-84
2024/01/17 06:42:17;;;;;;;160.52;68.10;;;;;;;-142.57;100.00;55800.03;5037416;28;20048;-87
2024/01/17 06:44:44;;;;;;;165.77;69.78;;;;;;;-142.57;100.00;55789.94;5038384;28;20033;-83
2024/01/17 06:47:09;;;;;;;168.30;69.30;;;;;;;-142.57;100.00;55804.06;5037077;28;20025;-87
2024/01/17 06:49:35;;;;;;;168.18;69.95;;;;;;;-142.57;100.00;55779.84;5034482;28;20048;-81
2024/01/17 06:52:02;;;;;;;170.30;73.85;;;;;;;-142.57;100.00;55810.13;5033859;28;20049;-83
2024/01/17 06:54:31;;;;;;;163.98;70.97;;;;;;;-142.57;100.00;55820.25;5036064;28;20033;-86
2024/01/17 06:56:56;;;;;;;184.20;75.25;;;;;;;-142.57;100.00;55822.25;5034999;28;20037;-81
2024/01/17 06:59:22;;;;;;;182.30;74.60;;;;;;;-142.57;100.00;55838.44;5037549;28;20444;-80
2024/01/17 07:01:47;;;;;;;186.93;77.65;;;;;;;-142.57;100.00;55818.22;5054979;28;20048;-85
2024/01/17 07:04:13;;;;;;;183.13;77.18;;;;;;;-142.57;100.00;55850.56;5054967;28;20037;-79
2024/01/17 07:06:38;;;;;;;183.98;75.18;;;;;;;-142.57;100.00;55822.25;5054414;28;20446;-82
2024/01/17 07:09:04;;;;;;;184.40;74.40;;;;;;;-142.57;100.00;55834.38;5054158;28;20041;-81
2024/01/17 07:11:29;;;;;;;167.60;74.88;;;;;;;-142.57;100.00;55884.91;5055317;28;20056;-80
2024/01/17 07:13:58;;;;;;;175.30;74.72;;;;;;;-142.57;100.00;55854.59;5055290;28;20037;-79
2024/01/17 07:16:24;;;;;;;187.35;77.03;;;;;;;-142.57;100.00;55818.22;5054704;28;20060;-80
2024/01/17 07:18:50;;;;;;;180.70;76.75;;;;;;;-142.57;100.00;55818.22;5038160;28;20128;-85
2024/01/17 07:21:15;;;;;;;178.13;76.90;;;;;;;-142.57;100.00;55874.78;5057463;28;20134;-81
2024/01/17 07:23:42;;;;;;;179.63;77.97;;;;;;;-142.57;100.00;55828.31;5034713;28;20049;-81
2024/01/17 07:26:08;;;;;;;175.40;76.25;;;;;;;-142.57;100.00;55876.81;5039048;28;20036;-81
2024/01/17 07:28:33;;;;;;;181.13;78.55;;;;;;;-142.57;100.00;55852.56;5043280;28;20398;-80
2024/01/17 07:30:59;;;;;;;188.90;76.78;;;;;;;-142.57;100.00;55866.72;5035596;28;20025;-82
2024/01/17 07:33:25;;;;;;;188.45;78.13;;;;;;;-142.57;100.00;55842.47;5034394;28;20021;-86
2024/01/17 07:35:51;;;;;;;188.93;76.28;;;;;;;-142.57;100.00;55842.47;5026979;28;20402;-86
2024/01/17 07:38:17;;;;;;;194.65;79.43;;;;;;;-142.57;100.00;55846.50;5017739;28;20033;-82
2024/01/17 07:40:43;;;;;;;188.45;78.60;;;;;;;-142.57;100.00;55870.75;5035907;28;20110;-82
2024/01/17 07:43:09;;;;;;;179.85;78.00;;;;;;;-142.57;100.00;55895.00;5036776;28;20102;-81
2024/01/17 07:45:35;;;;;;;172.98;76.45;;;;;;;-142.57;100.00;55907.13;5037074;28;20033;-83
2024/01/17 07:48:00;;;;;;;191.10;80.93;;;;;;;-142.57;100.00;55888.94;5041249;28;20509;-81
2024/01/17 07:50:26;;;;;;;184.63;80.40;;;;;;;-142.57;100.00;55876.81;5008579;28;20116;-82
2024/01/17 07:52:52;;;;;;;186.70;81.32;;;;;;;-142.57;100.00;55850.56;5044084;28;20044;-81
2024/01/17 07:55:17;;;;;;;188.63;79.97;;;;;;;-142.57;100.00;55882.88;5044166;28;20037;-83
2024/01/17 07:57:43;;;;;;;183.77;78.82;;;;;;;-142.57;100.00;55884.91;5040803;28;20045;-78
2024/01/17 08:00:09;;;;;;;181.48;79.18;;;;;;;-142.57;100.00;55882.88;5035113;28;20029;-80
2024/01/17 08:02:39;;;;;;;182.80;78.30;;;;;;;-142.57;100.00;55870.75;5034713;28;20033;-80
2024/01/17 08:05:05;;;;;;;185.32;78.78;;;;;;;-142.57;100.00;55880.84;5035516;28;20159;-80
2024/01/17 08:07:31;;;;;;;178.70;77.30;;;;;;;-142.57;100.00;55888.94;5034299;28;20033;-81
2024/01/17 08:09:56;;;;;;;180.65;76.38;;;;;;;-142.57;100.00;55925.31;5035238;28;20441;-80
2024/01/17 08:12:22;;;;;;;184.43;81.20;;;;;;;-142.57;100.00;55870.75;5040311;28;20045;-79
2024/01/17 08:14:47;;;;;;;181.48;79.00;;;;;;;-142.57;100.00;55848.53;5023778;28;20033;-78
2024/01/17 08:17:13;;;;;;;190.25;82.03;;;;;;;-142.57;100.00;55866.72;5039301;28;20037;-77
2024/01/17 08:19:39;;;;;;;188.45;79.68;;;;;;;-142.57;100.00;55870.75;5042206;28;20083;-79
2024/01/17 08:22:05;;;;;;;196.45;83.20;;;;;;;-142.57;100.00;55858.63;5038912;28;20041;-77
2024/01/17 08:24:31;;;;;;;199.30;82.80;;;;;;;-142.57;100.00;55892.97;5040074;28;20041;-82
2024/01/17 08:26:57;;;;;;;190.20;79.95;;;;;;;-142.57;100.00;55895.00;5037288;28;20030;-79
2024/01/17 08:29:23;;;;;;;192.50;80.10;;;;;;;-142.57;100.00;55913.19;5033422;28;20140;-82
2024/01/17 08:31:49;;;;;;;190.13;83.57;;;;;;;-142.57;100.00;55919.25;5034112;28;20068;-80
2024/01/17 08:34:15;;;;;;;189.57;80.18;;;;;;;-142.57;100.00;55929.34;5033898;28;20041;-81
2024/01/17 08:36:41;;;;;;;193.02;80.95;;;;;;;-142.57;100.00;55884.91;5033336;28;20044;-80
2024/01/17 08:39:06;;;;;;;196.70;83.30;;;;;;;-142.57;100.00;55888.94;5033662;28;20060;-80
2024/01/17 08:41:33;;;;;;;193.95;82.85;;;;;;;-142.57;100.00;55892.97;5034944;28;20474;-85
2024/01/17 08:44:02;;;;;;;196.15;83.18;;;;;;;-142.57;100.00;55890.97;5034146;28;20179;-79
2024/01/17 08:46:28;;;;;;;194.27;84.13;;;;;;;-142.57;100.00;55864.69;5036001;28;20033;-81
2024/01/17 08:48:54;;;;;;;192.25;84.60;;;;;;;-142.57;100.00;55899.03;5034590;28;20548;-81
2024/01/17 08:51:21;;;;;;;204.55;86.40;;;;;;;-142.57;100.00;55915.22;5033291;28;20030;-82
2024/01/17 08:53:47;;;;;;;202.38;85.55;;;;;;;-142.57;100.00;55955.63;5032548;28;20104;-79
2024/01/17 08:56:14;;;;;;;204.65;86.68;;;;;;;-142.57;100.00;55983.91;5032458;28;20068;-81
2024/01/17 08:58:43;;;;;;;196.20;86.95;;;;;;;-142.57;100.00;55967.75;5032702;28;20049;-79
2024/01/17 09:01:10;;;;;;;189.57;84.55;;;;;;;-142.57;100.00;55939.47;5032904;28;20021;-81
2024/01/17 09:03:36;;;;;;;177.23;81.15;;;;;;;-142.57;100.00;55967.75;5033148;28;20063;-79
2024/01/17 09:06:02;;;;;;;184.65;80.25;;;;;;;-142.57;100.00;55983.91;5014797;28;20038;-80
2024/01/17 09:08:28;;;;;;;181.18;81.30;;;;;;;-142.57;100.00;55943.50;5033253;28;20144;-80
2024/01/17 09:10:54;;;;;;;175.73;78.72;;;;;;;-142.57;100.00;55929.34;5032989;28;20041;-80
2024/01/17 09:13:23;;;;;;;165.95;77.00;;;;;;;-142.57;100.00;55939.47;5018608;28;20099;-84
2024/01/17 09:15:51;;;;;;;136.63;57.78;;;;;;;-142.57;100.00;55971.78;5003331;28;20030;-82
2024/01/17 09:18:18;;;;;;;177.52;78.85;;;;;;;-142.57;100.00;55927.34;5037509;28;20045;-85
2024/01/17 09:20:44;;;;;;;169.48;77.13;;;;;;;-142.57;100.00;55967.75;5036241;28;20031;-81
2024/01/17 09:23:10;;;;;;;164.40;75.35;;;;;;;-142.57;100.00;55967.75;5038275;28;20033;-84
2024/01/17 09:25:35;;;;;;;167.35;75.95;;;;;;;-142.57;100.00;55987.94;5037867;28;20029;-84
2024/01/17 09:28:01;;;;;;;167.68;76.47;;;;;;;-142.57;100.00;55939.47;5038729;28;20112;-82
2024/01/17 09:30:26;;;;;;;160.13;75.85;;;;;;;-142.57;100.00;55949.56;5037336;28;20037;-83
2024/01/17 09:32:52;;;;;;;156.13;74.43;;;;;;;-142.57;100.00;55923.28;5036305;28;20041;-84
2024/01/17 09:35:17;;;;;;;162.80;77.68;;;;;;;-142.57;100.00;55935.41;5036310;28;20060;-81
2024/01/17 09:37:43;;;;;;;155.45;74.15;;;;;;;-142.57;100.00;55947.53;5035819;28;20504;-85
2024/01/17 09:40:11;;;;;;;147.05;72.35;;;;;;;-142.57;100.00;55963.72;5036350;28;20079;-83
2024/01/17 09:42:37;;;;;;;148.35;72.13;;;;;;;-142.57;100.00;55945.53;5036663;28;20061;-84
2024/01/17 09:45:03;;;;;;;140.75;69.28;;;;;;;-142.57;100.00;55949.56;5036336;28;20072;-83
2024/01/17 09:47:32;;;;;;;135.88;68.13;;;;;;;-142.57;100.00;55987.94;5035855;28;20160;-85
2024/01/17 09:49:58;;;;;;;136.48;69.82;;;;;;;-142.57;100.00;55941.47;5018693;28;20414;-85
2024/01/17 09:52:23;;;;;;;136.45;68.63;;;;;;;-142.57;100.00;55953.59;5035933;28;20041;-82
2024/01/17 09:54:51;;;;;;;127.80;66.45;;;;;;;-142.57;100.00;55961.69;5036585;28;20108;-83
2024/01/17 09:57:34;;;;;;;124.90;64.60;;;;;;;-142.57;100.00;55992.00;5035264;28;20382;-82
2024/01/17 10:00:06;;;;;;;126.45;64.40;;;;;;;-142.57;100.00;55923.28;5036970;28;20045;-80
2024/01/17 10:02:35;;;;;;;130.30;66.97;;;;;;;-142.57;100.00;55951.59;5037090;28;20033;-85
2024/01/17 10:05:04;;;;;;;133.50;68.35;;;;;;;-142.57;100.00;55939.47;5036440;28;20033;-81
2024/01/17 10:07:29;;;;;;;127.90;64.22;;;;;;;-142.57;100.00;55927.34;5036803;28;20494;-83
2024/01/17 10:09:58;;;;;;;129.50;66.57;;;;;;;-142.57;100.00;55969.78;5036077;28;20083;-82
2024/01/17 10:12:23;;;;;;;122.53;63.20;;;;;;;-142.57;100.00;55955.63;5035691;28;20474;-85
2024/01/17 10:14:49;;;;;;;121.85;63.90;;;;;;;-142.57;100.00;55985.94;5018331;28;20140;-85
2024/01/17 10:17:14;;;;;;;105.00;58.33;;;;;;;-142.57;100.00;55969.78;5046621;28;20057;-81
2024/01/17 10:19:40;;;;;;;105.63;58.42;;;;;;;-142.57;100.00;55951.59;5047671;28;20400;-80
2024/01/17 10:22:09;;;;;;;116.53;60.65;;;;;;;-142.57;100.00;55975.84;5038764;28;20028;-82
2024/01/17 10:24:36;;;;;;;103.78;57.65;;;;;;;-142.57;100.00;55945.53;5045236;28;20064;-83
2024/01/17 10:27:03;;;;;;;108.72;57.60;;;;;;;-142.57;100.00;55919.25;5036088;28;20033;-84
2024/01/17 10:29:36;;;;;;;106.55;56.88;;;;;;;-142.57;100.00;55951.59;5035725;28;20030;-82
2024/01/17 10:32:02;;;;;;;100.18;55.13;;;;;;;-142.57;100.00;55890.97;5035900;28;20033;-85
2024/01/17 10:34:28;;;;;;;106.22;57.50;;;;;;;-142.57;100.00;55925.31;5035545;28;20091;-84
2024/01/17 10:36:54;;;;;;;99.47;54.28;;;;;;;-142.57;100.00;55919.25;5035224;28;20107;-80
2024/01/17 10:39:21;;;;;;;97.70;56.05;;;;;;;-142.57;100.00;55917.22;5035244;28;20445;-80
2024/01/17 10:41:51;;;;;;;101.68;55.83;;;;;;;-142.57;100.00;55945.53;5035615;28;20037;-81
2024/01/17 10:44:19;;;;;;;97.25;54.53;;;;;;;-142.57;100.00;55947.53;5036321;28;20033;-88
2024/01/17 10:46:50;;;;;;;95.73;53.83;;;;;;;-142.57;100.00;55925.31;5035098;28;20073;-81
2024/01/17 10:49:17;;;;;;;97.97;53.40;;;;;;;-142.57;100.00;55953.59;5035288;28;20136;-81